This is the latest recevied weather packets stored in our database for station/object DL9GRB-13. If no packets are shown the sender has not sent any weather packets the latest 10 day(s).
| Time | Temp. | Humidity | Pressure | Rain* | Wind** | Luminosity | Snow |
|---|---|---|---|---|---|---|---|
| 1777361705 | 12.78° C | 40% | 1026.5 hPa | 0 mm | - | 386 W/m² | - |
| 1777361525 | 12.78° C | 38% | 1026.6 hPa | 0 mm | - | 380 W/m² | - |
| 1777361345 | 12.22° C | 37% | 1026.6 hPa | 0 mm | - | 373 W/m² | - |
| 1777361165 | 12.78° C | 37% | 1026.6 hPa | 0 mm | - | 366 W/m² | - |
| 1777360985 | 12.22° C | 35% | 1026.6 hPa | 0 mm | - | 358 W/m² | - |
| 1777360805 | 12.22° C | 37% | 1026.7 hPa | 0 mm | - | 354 W/m² | - |
| 1777360625 | 12.22° C | 38% | 1026.6 hPa | 0 mm | - | 344 W/m² | - |
| 1777360445 | 12.22° C | 37% | 1026.7 hPa | 0 mm | - | 336 W/m² | - |
| 1777360265 | 12.22° C | 38% | 1026.6 hPa | 0 mm | - | 328 W/m² | - |
| 1777360085 | 12.22° C | 42% | 1026.5 hPa | 0 mm | - | 322 W/m² | - |
| 1777359905 | 12.22° C | 39% | 1026.6 hPa | 0 mm | - | 314 W/m² | - |
| 1777359725 | 12.22° C | 37% | 1026.6 hPa | 0 mm | - | 306 W/m² | - |
| 1777359545 | 12.22° C | 38% | 1026.6 hPa | 0 mm | - | 299 W/m² | - |
| 1777359365 | 12.22° C | 39% | 1026.6 hPa | 0 mm | - | 289 W/m² | - |
| 1777359005 | 11.67° C | 39% | 1026.4 hPa | 0 mm | - | 271 W/m² | - |
| 1777358105 | 11.11° C | 47% | 1026.4 hPa | 0 mm | - | 187 W/m² | - |
| 1777357925 | 11.11° C | 47% | 1026.4 hPa | 0 mm | - | 174 W/m² | - |
| 1777357745 | 11.11° C | 47% | 1026.4 hPa | 0 mm | - | 155 W/m² | - |
| 1777357565 | 11.11° C | 50% | 1026.5 hPa | 0 mm | - | 143 W/m² | - |
| 1777357385 | 11.11° C | 50% | 1026.5 hPa | 0 mm | - | 133 W/m² | - |
| 1777357205 | 11.11° C | 53% | 1026.5 hPa | 0 mm | - | 126 W/m² | - |
| 1777357025 | 11.11° C | 56% | 1026.5 hPa | 0 mm | - | 119 W/m² | - |
| 1777356845 | 10.56° C | 56% | 1026.4 hPa | 0 mm | - | 113 W/m² | - |
| 1777356665 | 10.56° C | 53% | 1026.3 hPa | 0 mm | - | 108 W/m² | - |
| 1777356485 | 10.56° C | 55% | 1026.3 hPa | 0 mm | - | 104 W/m² | - |
* Rain latest hour (hover to see other rain measurements)
** Current wind speed in m/s (hover to see current wind gust speed)